Airfield :
LOGIN :

Register | Disclaimer

   EN    FR    IT 

 










Legend :    VFR   Marginal VFR   IFR   Intensive IFR   Very Intensive IFR
Visi :
Ceiling :
>= 8 km
>= 3000ft
5 to 8 km
1000 to 3000 ft
1500m to 5 km
500 to 1000 ft
800 to 1500m
200 to 500 ft
< 800m
< 200 ft
Symbols :   Thunderstorms  Fog  Heavy snow  Heavy precipitations  Wind > 20 kt
SIGMETs :     Misc.  Thunderstorms  Icing  Turbulence  Mountain Waves  Volcanic Ashes






- Airport Elevation : 336 ft
- IATA code : GCI


EGJB - Guernsey

CURRENT METAR :
  • 211320Z 24012KT 9999 BKN003 15/15 Q0999

EXPIRED METARs :
  • 211250Z 24014KT 9999 VCSH BKN003 15/15 Q0998 RERA
  • 211220Z 23010KT 7000 RA SCT003 BKN005 14/14 Q0998
  • 211150Z 23010KT 9999 -RA FEW003 SCT032 BKN048 15/15 Q0997 RERA
  • 211120Z 21008KT 9999 RA FEW004 SCT018 BKN048 14/14 Q0997
  • 211050Z 22013KT 4000 RA FEW001 BKN003 14/14 Q0996

TAF TAF EGJB
Valid from the 21 at 12:00 until the 21 at 21:00 UTC


211057Z 2112/2121 24016KT 9999 SCT006 BKN015
TEMPO 2112/2114 5000 RA BKN006
PROB40
TEMPO 2112/2113 2000 BR BKN002
TEMPO 2117/2120 24020G30KT
ATIS : +44 1481 238 957



MET'MAP, your aeronautical weather chart ! - Copyright ORBIFLY December 2007 - Disclaimer

ORBIFLY MET'MAP TEAM :

Programming & Development : Alexandra Zaïnal
Concept & original design : Baudouin d'Aumeries
Assistance for programming : Marc-Olivier Méhu
Technical & hardware support : Manuel Goepfert

Contact : metmap@orbifly.com




SOURCES & CREDITS :

   NOAA